Kezdőlap
METAR-TAF:

METAR-TAF

Repülőterek :

Jászvásár, Románia

földrajzi szélesség: 47-10N, földrajzi hosszúság: 027-38E, magasság: 102 m

Jelenlegi meteorológiai megfigyelések

A jelentés 33 perccel ezelõtt készült, 23:30 UTC
Nyugat-északnyugati szél 4 kt
Hőmérséklet 12°C
Páratartalom 94%
Légköri nyomás 1017 hPa
Látótávolság 10 km, vagy több
felhőtlen 1500 m magasságban, és nincs gomolyfelhõ

METAR: LRIA 242330Z 29004KT CAVOK 12/11 Q1017

Idő: 03:03 (00:03 UTC)

Előrejelzés

A jelentés 1 órával és 3 perccel ezelõtt készült, 23:00 UTC
Az előrejelzés 25-én 00 óra UTC és 25-én 09 óra UTC között érvényes
Különbözõ irányokból fújó szél 4 kt
Látótávolság 10 km, vagy több
felhőtlen 1500 m magasságban, és nincs gomolyfelhõ

TAF: LRIA 242300Z 2500/2509 VRB04KT CAVOK

Meteorológiai megfigyelések és előrejelzések több, mint 4000 repülőtéren (METAR és TAF jelentéseket).

A térképen piros és sárga pontok jelzik az elérhető meteorológiai állomásokat.

Mozgassa az egeret a pont fölött, hogy megjelenjen az állomás neve.

Azután kattintson az időjárási megfigyelések és előrejelzések megtekintéséhez.

A térkép megváltoztatása: kattintson a fekete keresztel jelölt zöld gombra ráközelítéshez, a vonallal jelölt zöld gombra távolításhoz, vagy a zöld nyilakra a szomszédos térképek eléréséhez.


METAR-TAF: